Time;durP1;ratioP1;P1;durP2;ratioP2;P2;SDS_P1;SDS_P2;PMS_P1;PMS_P2;Temp;Humidity;BMP_temperature;BMP_pressure;BME280_temperature;BME280_humidity;BME280_pressure;Samples;Min_cycle;Max_cycle;Signal;HPM_P1;HPM_P2
2021/08/27 00:02:06;;;;;;;;;;;;;;;18.76;93.68;99151.34;5031772;28;866;-63
2021/08/27 00:04:33;;;;;;;;;;;;;;;18.69;93.75;99146.13;5031813;28;838;-62
2021/08/27 00:07:00;;;;;;;;;;;;;;;18.65;93.79;99145.50;5031807;28;876;-63
2021/08/27 00:09:27;;;;;;;;;;;;;;;18.63;93.97;99142.41;5031827;28;819;-63
2021/08/27 00:11:54;;;;;;;;;;;;;;;18.64;93.92;99155.13;5031508;28;1874;-62
2021/08/27 00:14:21;;;;;;;;;;;;;;;18.63;94.08;99159.19;5031643;28;857;-62
2021/08/27 00:16:47;;;;;;;;;;;;;;;18.64;94.17;99160.72;5031474;28;1378;-62
2021/08/27 00:19:14;;;;;;;;;;;;;;;18.63;94.18;99161.22;5031490;28;791;-62
2021/08/27 00:21:41;;;;;;;;;;;;;;;18.61;93.92;99158.13;5031487;28;893;-62
2021/08/27 00:24:07;;;;;;;;;;;;;;;18.57;94.04;99156.25;5031510;28;830;-62
2021/08/27 00:26:34;;;;;;;;;;;;;;;18.56;94.15;99153.94;5031352;28;806;-62
2021/08/27 00:29:01;;;;;;;;;;;;;;;18.55;94.10;99149.59;5031526;28;835;-62
2021/08/27 00:31:28;;;;;;;;;;;;;;;18.54;94.02;99156.41;5031287;28;1914;-62
2021/08/27 00:33:55;;;;;;;;;;;;;;;18.54;94.27;99153.63;5031566;28;862;-62
2021/08/27 00:36:21;;;;;;;;;;;;;;;18.53;94.18;99155.66;5031360;28;893;-62
2021/08/27 00:38:49;;;;;;;;;;;;;;;18.51;94.16;99149.75;5031369;28;842;-62
2021/08/27 00:41:17;;;;;;;;;;;;;;;18.51;94.18;99146.19;5031244;28;850;-62
2021/08/27 00:43:43;;;;;;;;;;;;;;;18.51;94.13;99151.78;5031290;28;951;-62
2021/08/27 00:46:10;;;;;;;;;;;;;;;18.53;94.32;99143.69;5031205;28;862;-62
2021/08/27 00:48:36;;;;;;;;;;;;;;;18.52;94.28;99148.53;5031323;28;826;-62
2021/08/27 00:51:04;;;;;;;;;;;;;;;18.50;94.25;99145.41;5031191;28;2253;-62
2021/08/27 00:53:31;;;;;;;;;;;;;;;18.47;94.07;99151.94;5031378;28;857;-62
2021/08/27 00:55:58;;;;;;;;;;;;;;;18.43;94.17;99148.53;5034968;28;846;-62
2021/08/27 00:58:25;;;;;;;;;;;;;;;18.40;93.99;99148.72;5035002;28;854;-62
2021/08/27 01:00:51;;;;;;;;;;;;;;;18.36;94.06;99148.88;5034943;28;889;-62
2021/08/27 01:03:18;;;;;;;;;;;;;;;18.35;94.12;99150.91;5034939;28;818;-62
2021/08/27 01:05:46;;;;;;;;;;;;;;;18.33;94.18;99158.25;5034945;28;928;-62
2021/08/27 01:08:29;;;;;;;;;;;;;;;18.30;94.22;99159.94;5034794;28;857;-62
2021/08/27 01:11:25;;;;;;;;;;;;;;;18.27;94.23;99157.31;5034694;28;1953;-62
2021/08/27 01:13:54;;;;;;;;;;;;;;;18.23;94.32;99160.28;5021820;28;1272;-62
2021/08/27 01:16:23;;;;;;;;;;;;;;;18.22;94.25;99167.13;5034219;28;1368;-62
2021/08/27 01:19:22;;;;;;;;;;;;;;;18.24;94.40;99175.78;5034632;28;913;-62
2021/08/27 01:22:18;;;;;;;;;;;;;;;18.28;94.49;99173.63;5001419;28;1207;-62
2021/08/27 01:24:46;;;;;;;;;;;;;;;18.32;94.55;99168.63;5021481;28;1505;-62
2021/08/27 01:27:15;;;;;;;;;;;;;;;18.36;94.55;99174.06;5034795;28;835;-62
2021/08/27 01:29:45;;;;;;;;;;;;;;;18.39;94.60;99175.91;5034343;28;799;-62
2021/08/27 01:32:17;;;;;;;;;;;;;;;18.41;94.57;99179.00;5034368;28;1906;-62
2021/08/27 01:34:44;;;;;;;;;;;;;;;18.43;94.47;99178.53;5034316;28;842;-62
2021/08/27 01:37:12;;;;;;;;;;;;;;;18.43;94.58;99168.13;5034216;28;897;-62
2021/08/27 01:39:43;;;;;;;;;;;;;;;18.43;94.73;99168.13;5034268;28;846;-62
2021/08/27 01:42:11;;;;;;;;;;;;;;;18.43;94.43;99165.31;5034236;28;992;-62
2021/08/27 01:44:39;;;;;;;;;;;;;;;18.43;94.50;99159.72;5034109;28;898;-62
2021/08/27 01:47:07;;;;;;;;;;;;;;;18.44;94.49;99169.69;5034138;28;818;-62
2021/08/27 01:49:34;;;;;;;;;;;;;;;18.44;94.52;99168.94;5034110;28;909;-62
2021/08/27 01:52:03;;;;;;;;;;;;;;;18.46;94.39;99174.81;5033915;28;1886;-62
2021/08/27 01:54:30;;;;;;;;;;;;;;;18.43;94.35;99165.31;5033903;28;794;-62
2021/08/27 01:56:57;;;;;;;;;;;;;;;18.41;94.43;99165.03;5034175;28;874;-62
2021/08/27 01:59:26;;;;;;;;;;;;;;;18.41;94.34;99162.22;5033832;28;911;-62
2021/08/27 02:01:53;;;;;;;;;;;;;;;18.41;94.56;99153.84;5033880;28;889;-62
2021/08/27 02:04:19;;;;;;;;;;;;;;;18.42;94.53;99137.84;5033699;28;826;-62
2021/08/27 02:06:47;;;;;;;;;;;;;;;18.41;94.60;99137.03;5033633;28;790;-62
2021/08/27 02:09:14;;;;;;;;;;;;;;;18.42;94.62;99135.81;5033736;28;819;-62
2021/08/27 02:11:42;;;;;;;;;;;;;;;18.41;94.49;99139.84;5033570;28;1882;-61
2021/08/27 02:14:09;;;;;;;;;;;;;;;18.42;94.46;99141.41;5033641;28;838;-62
2021/08/27 02:16:36;;;;;;;;;;;;;;;18.40;94.32;99141.09;5033557;28;1222;-62
2021/08/27 02:19:03;;;;;;;;;;;;;;;18.39;94.38;99145.13;5033566;28;917;-62
2021/08/27 02:21:32;;;;;;;;;;;;;;;18.36;94.35;99151.69;5033465;28;838;-62
2021/08/27 02:24:02;;;;;;;;;;;;;;;18.31;94.32;99144.72;5033627;28;822;-62
2021/08/27 02:26:30;;;;;;;;;;;;;;;18.26;94.26;99152.97;5033345;28;913;-62
2021/08/27 02:28:57;;;;;;;;;;;;;;;18.20;94.26;99154.84;5033397;28;858;-62
2021/08/27 02:31:26;;;;;;;;;;;;;;;18.13;94.24;99153.16;5033141;28;1913;-62
2021/08/27 02:33:53;;;;;;;;;;;;;;;18.08;94.24;99148.22;5033144;28;858;-62
2021/08/27 02:36:19;;;;;;;;;;;;;;;18.04;94.29;99145.56;5033506;28;846;-62
2021/08/27 02:38:48;;;;;;;;;;;;;;;17.98;94.27;99143.88;5033072;28;863;-62
2021/08/27 02:41:15;;;;;;;;;;;;;;;17.94;94.23;99144.81;5033701;28;763;-62
2021/08/27 02:43:42;;;;;;;;;;;;;;;17.91;94.31;99139.38;5033250;28;894;-62
2021/08/27 02:46:08;;;;;;;;;;;;;;;17.88;94.32;99143.91;5033237;28;830;-62
2021/08/27 02:48:34;;;;;;;;;;;;;;;17.87;94.33;99138.78;5032872;28;921;-62
2021/08/27 02:51:04;;;;;;;;;;;;;;;17.84;94.34;99137.69;5032821;28;1918;-62
2021/08/27 02:53:33;;;;;;;;;;;;;;;17.82;94.33;99137.38;5032959;28;865;-62
2021/08/27 02:56:07;;;;;;;;;;;;;;;17.79;94.13;99129.13;5032781;28;830;-62
2021/08/27 02:58:35;;;;;;;;;;;;;;;17.68;93.84;99133.16;5032763;28;794;-62
2021/08/27 03:01:08;;;;;;;;;;;;;;;17.61;94.01;99130.69;5032647;28;811;-62
2021/08/27 03:03:46;;;;;;;;;;;;;;;17.50;93.72;99127.63;5032584;28;957;-62
2021/08/27 03:06:18;;;;;;;;;;;;;;;17.44;93.85;99135.06;5032654;28;873;-61
2021/08/27 03:08:48;;;;;;;;;;;;;;;17.36;93.93;99129.00;5031360;28;1313;-62
2021/08/27 03:11:23;;;;;;;;;;;;;;;17.32;94.21;99120.00;5032496;28;1957;-61
2021/08/27 03:14:08;;;;;;;;;;;;;;;17.27;94.01;99129.00;5032658;28;1170;-61
2021/08/27 03:16:38;;;;;;;;;;;;;;;17.20;94.28;99132.88;5031682;28;1174;-62
2021/08/27 03:19:27;;;;;;;;;;;;;;;17.14;94.14;99140.31;5032500;28;834;-62
2021/08/27 03:21:53;;;;;;;;;;;;;;;16.90;94.08;99112.22;5032298;28;862;-61
2021/08/27 03:24:29;;;;;;;;;;;;;;;17.03;94.23;99145.59;5032386;28;839;-61
2021/08/27 03:26:59;;;;;;;;;;;;;;;16.97;94.03;99148.19;5032189;28;838;-61
2021/08/27 03:29:27;;;;;;;;;;;;;;;16.99;94.57;99153.34;5032294;28;855;-61
2021/08/27 03:31:53;;;;;;;;;;;;;;;17.02;94.29;99158.75;5032018;28;1890;-61
2021/08/27 03:34:20;;;;;;;;;;;;;;;17.02;94.41;99160.78;5032147;28;822;-61
2021/08/27 03:36:49;;;;;;;;;;;;;;;16.95;94.16;99159.06;5032030;28;822;-61
2021/08/27 03:39:16;;;;;;;;;;;;;;;17.00;94.50;99155.63;5032341;28;869;-61
2021/08/27 03:41:43;;;;;;;;;;;;;;;17.01;94.80;99150.84;5031986;28;826;-61
2021/08/27 03:44:11;;;;;;;;;;;;;;;17.05;94.91;99166.22;5031969;28;822;-61
2021/08/27 03:46:37;;;;;;;;;;;;;;;17.10;95.14;99176.00;5031831;28;859;-61
2021/08/27 03:49:05;;;;;;;;;;;;;;;17.18;95.49;99168.09;5031855;28;799;-61
2021/08/27 03:51:32;;;;;;;;;;;;;;;17.28;95.53;99175.22;5031855;28;1890;-61
2021/08/27 03:53:59;;;;;;;;;;;;;;;17.38;95.55;99184.41;5031670;28;825;-61
2021/08/27 03:56:27;;;;;;;;;;;;;;;17.49;95.96;99187.50;5031907;28;900;-61
2021/08/27 03:58:54;;;;;;;;;;;;;;;17.61;96.21;99183.03;5031704;28;842;-62
2021/08/27 04:01:22;;;;;;;;;;;;;;;17.71;96.06;99184.56;5031677;28;752;-61
2021/08/27 04:03:47;;;;;;;;;;;;;;;17.80;96.01;99183.78;5031711;28;854;-61
2021/08/27 04:06:14;;;;;;;;;;;;;;;17.92;96.23;99202.44;5031664;28;882;-61
2021/08/27 04:08:41;;;;;;;;;;;;;;;18.07;96.53;99196.97;5031588;28;798;-61
2021/08/27 04:11:10;;;;;;;;;;;;;;;18.15;96.42;99198.97;5031575;28;1890;-61
2021/08/27 04:13:37;;;;;;;;;;;;;;;18.23;96.38;99205.03;5031591;28;822;-61
2021/08/27 04:16:04;;;;;;;;;;;;;;;18.37;96.46;99206.41;5031149;28;1206;-62
2021/08/27 04:18:31;;;;;;;;;;;;;;;18.49;96.60;99201.84;5031576;28;861;-61
2021/08/27 04:21:00;;;;;;;;;;;;;;;18.55;96.47;99197.94;5031444;28;850;-61
2021/08/27 04:23:27;;;;;;;;;;;;;;;18.66;96.56;99191.06;5030162;28;1447;-61
2021/08/27 04:25:54;;;;;;;;;;;;;;;18.73;96.53;99185.91;5031401;28;819;-61
2021/08/27 04:28:20;;;;;;;;;;;;;;;18.83;96.58;99183.09;5031473;28;1046;-62
2021/08/27 04:30:47;;;;;;;;;;;;;;;18.95;96.65;99188.47;5035458;28;982;-62
2021/08/27 04:33:14;;;;;;;;;;;;;;;19.03;96.47;99190.91;5035430;28;866;-61
2021/08/27 04:35:40;;;;;;;;;;;;;;;19.10;96.57;99191.34;5035427;28;849;-61
2021/08/27 04:38:06;;;;;;;;;;;;;;;19.23;96.68;99188.28;5035387;28;874;-62
2021/08/27 04:40:33;;;;;;;;;;;;;;;19.32;96.59;99181.84;5035528;28;870;-62
2021/08/27 04:43:00;;;;;;;;;;;;;;;19.40;96.37;99176.66;5035335;28;810;-61
2021/08/27 04:45:26;;;;;;;;;;;;;;;19.50;96.59;99178.13;5035257;28;819;-61
2021/08/27 04:47:53;;;;;;;;;;;;;;;19.65;96.43;99170.56;5035248;28;819;-61
2021/08/27 04:50:19;;;;;;;;;;;;;;;19.72;96.35;99184.22;5035167;28;806;-61
2021/08/27 04:52:45;;;;;;;;;;;;;;;19.79;96.20;99188.66;5034888;28;1902;-61
2021/08/27 04:55:12;;;;;;;;;;;;;;;19.85;96.19;99192.34;5035346;28;798;-61
2021/08/27 04:57:40;;;;;;;;;;;;;;;20.02;96.32;99195.47;5035308;28;823;-61
2021/08/27 05:00:08;;;;;;;;;;;;;;;20.09;95.55;99200.69;5034967;28;855;-62
2021/08/27 05:02:36;;;;;;;;;;;;;;;20.12;95.35;99205.34;5035037;28;881;-61
2021/08/27 05:05:03;;;;;;;;;;;;;;;20.14;95.22;99211.25;5035017;28;885;-61
2021/08/27 05:07:29;;;;;;;;;;;;;;;20.25;95.25;99209.88;5034814;28;819;-61
2021/08/27 05:15:30;;;;;;;;;;;;;;;20.57;93.93;99211.75;6005740;22;1690;-62
2021/08/27 05:17:57;;;;;;;;;;;;;;;20.60;93.54;99222.00;4995337;28;826;-61
2021/08/27 05:20:22;;;;;;;;;;;;;;;20.63;93.10;99219.47;4995314;28;873;-61
2021/08/27 05:22:49;;;;;;;;;;;;;;;20.58;93.30;99221.72;4995244;28;842;-61
2021/08/27 05:25:15;;;;;;;;;;;;;;;20.55;93.27;99214.25;4995099;28;858;-62
2021/08/27 05:27:42;;;;;;;;;;;;;;;20.56;93.56;99227.00;4995212;28;834;-62
2021/08/27 05:30:10;;;;;;;;;;;;;;;20.54;93.15;99223.91;4995107;28;869;-62
2021/08/27 05:32:37;;;;;;;;;;;;;;;20.55;93.22;99216.28;4994965;28;2009;-62
2021/08/27 05:35:04;;;;;;;;;;;;;;;20.70;93.34;99210.69;4995057;28;862;-62
2021/08/27 05:37:32;;;;;;;;;;;;;;;20.96;93.04;99208.75;4995108;28;846;-61
2021/08/27 05:39:58;;;;;;;;;;;;;;;21.35;91.97;99210.56;4994466;28;867;-62
2021/08/27 05:42:24;;;;;;;;;;;;;;;21.63;91.02;99208.13;4994934;28;861;-62
2021/08/27 05:44:51;;;;;;;;;;;;;;;21.92;90.89;99195.91;4993460;28;1271;-62
2021/08/27 05:47:18;;;;;;;;;;;;;;;22.10;90.02;99186.38;4994805;28;844;-61
2021/08/27 05:49:44;;;;;;;;;;;;;;;22.33;89.92;99183.78;4994836;28;803;-61
2021/08/27 05:52:11;;;;;;;;;;;;;;;22.50;89.22;99169.84;4994849;28;1894;-62
2021/08/27 05:54:37;;;;;;;;;;;;;;;22.73;89.39;99176.44;4994775;28;858;-61
2021/08/27 05:57:04;;;;;;;;;;;;;;;23.18;88.21;99174.66;4994876;28;815;-61
2021/08/27 05:59:31;;;;;;;;;;;;;;;23.69;87.18;99174.88;4993548;28;1307;-61
2021/08/27 06:01:58;;;;;;;;;;;;;;;24.50;84.87;99180.91;4994707;28;811;-62
2021/08/27 06:04:24;;;;;;;;;;;;;;;25.10;81.97;99185.47;4995271;28;807;-62
2021/08/27 06:06:53;;;;;;;;;;;;;;;25.06;82.71;99191.38;4994521;28;807;-61
2021/08/27 06:09:20;;;;;;;;;;;;;;;25.10;82.45;99191.88;4994748;28;905;-61
2021/08/27 06:11:46;;;;;;;;;;;;;;;24.99;82.85;99197.56;4994529;28;1952;-61
2021/08/27 06:14:12;;;;;;;;;;;;;;;24.76;83.20;99202.47;4994655;28;791;-61
2021/08/27 06:16:39;;;;;;;;;;;;;;;24.62;83.46;99195.78;5013697;28;1209;-61
2021/08/27 06:19:06;;;;;;;;;;;;;;;25.06;82.95;99208.34;5033711;28;896;-61
2021/08/27 06:21:34;;;;;;;;;;;;;;;25.54;80.12;99200.75;5034011;28;795;-61
2021/08/27 06:24:01;;;;;;;;;;;;;;;25.77;80.51;99207.81;5033725;28;873;-61
2021/08/27 06:26:28;;;;;;;;;;;;;;;26.13;79.47;99204.31;5033751;28;806;-61
2021/08/27 06:28:55;;;;;;;;;;;;;;;26.45;77.89;99210.25;5033580;28;865;-61
2021/08/27 06:31:21;;;;;;;;;;;;;;;26.43;77.40;99212.84;5033494;28;1910;-60
2021/08/27 06:33:48;;;;;;;;;;;;;;;26.55;78.09;99207.88;5033385;28;842;-60
2021/08/27 06:36:15;;;;;;;;;;;;;;;26.73;76.79;99203.59;5033336;28;1204;-59
2021/08/27 06:38:42;;;;;;;;;;;;;;;26.72;76.24;99196.41;5033264;28;862;-59
2021/08/27 06:41:09;;;;;;;;;;;;;;;26.67;76.13;99192.31;5033304;28;850;-59
2021/08/27 06:43:37;;;;;;;;;;;;;;;26.85;76.24;99199.38;5032039;28;1328;-59
2021/08/27 06:46:06;;;;;;;;;;;;;;;26.96;75.50;99202.09;5033381;28;829;-59
2021/08/27 06:48:33;;;;;;;;;;;;;;;26.81;74.45;99202.50;5033040;28;861;-60
2021/08/27 06:50:59;;;;;;;;;;;;;;;26.48;74.43;99214.88;5032480;28;1885;-59
2021/08/27 06:53:26;;;;;;;;;;;;;;;26.84;73.47;99214.81;5032582;28;857;-60
2021/08/27 06:55:53;;;;;;;;;;;;;;;27.14;72.52;99214.81;5033123;28;888;-60
2021/08/27 06:58:19;;;;;;;;;;;;;;;27.55;71.75;99213.06;5033087;28;822;-59
2021/08/27 07:00:46;;;;;;;;;;;;;;;27.74;70.85;99224.41;5032978;28;830;-60
2021/08/27 07:03:13;;;;;;;;;;;;;;;27.25;72.62;99226.03;5032902;28;854;-60
2021/08/27 07:05:40;;;;;;;;;;;;;;;27.15;73.40;99227.66;5033421;28;826;-60
2021/08/27 07:08:07;;;;;;;;;;;;;;;27.05;73.18;99232.91;5032939;28;790;-60
2021/08/27 07:10:34;;;;;;;;;;;;;;;27.07;73.54;99236.00;5033058;28;790;-60
2021/08/27 07:13:00;;;;;;;;;;;;;;;27.04;73.32;99241.97;5032824;28;1894;-60
2021/08/27 07:15:26;;;;;;;;;;;;;;;27.62;72.45;99243.69;5033054;28;888;-60
2021/08/27 07:17:53;;;;;;;;;;;;;;;28.14;71.15;99245.31;5032320;28;1134;-60
2021/08/27 07:20:20;;;;;;;;;;;;;;;28.30;71.10;99247.16;5032415;28;822;-61
2021/08/27 07:22:48;;;;;;;;;;;;;;;28.96;69.97;99247.94;5032294;28;865;-61
2021/08/27 07:25:15;;;;;;;;;;;;;;;30.31;65.99;99246.00;5032605;28;738;-61
2021/08/27 07:27:42;;;;;;;;;;;;;;;30.57;63.87;99250.06;5032596;28;794;-61
2021/08/27 07:30:09;;;;;;;;;;;;;;;30.40;66.28;99241.91;5032607;28;819;-61
2021/08/27 07:32:36;;;;;;;;;;;;;;;30.93;66.03;99244.50;5032849;28;1902;-61
2021/08/27 07:35:04;;;;;;;;;;;;;;;31.65;62.76;99248.03;5032882;28;821;-61
2021/08/27 07:37:30;;;;;;;;;;;;;;;32.22;62.10;99252.84;5032628;28;821;-61
2021/08/27 07:39:57;;;;;;;;;;;;;;;32.51;62.03;99247.75;5032959;28;778;-62
2021/08/27 07:42:24;;;;;;;;;;;;;;;32.70;61.59;99250.28;5032416;28;813;-62
2021/08/27 07:44:51;;;;;;;;;;;;;;;32.50;61.25;99252.72;5032314;28;763;-62
2021/08/27 07:47:18;;;;;;;;;;;;;;;32.35;59.07;99244.13;5032575;28;814;-61
2021/08/27 07:49:44;;;;;;;;;;;;;;;31.68;60.90;99247.66;5031897;28;802;-62
2021/08/27 07:52:11;;;;;;;;;;;;;;;29.97;64.15;99253.75;5031825;28;1886;-62
2021/08/27 07:54:37;;;;;;;;;;;;;;;28.32;69.65;99258.00;5031767;28;972;-62
2021/08/27 07:57:03;;;;;;;;;;;;;;;27.26;73.63;99252.34;5031795;28;850;-62
2021/08/27 07:59:30;;;;;;;;;;;;;;;28.32;71.49;99255.16;5031780;28;815;-62
2021/08/27 08:01:57;;;;;;;;;;;;;;;30.04;65.45;99253.06;5031655;28;874;-61
2021/08/27 08:04:23;;;;;;;;;;;;;;;30.87;63.18;99248.81;5031511;28;876;-62
2021/08/27 08:06:50;;;;;;;;;;;;;;;31.51;64.29;99250.25;5031675;28;851;-62
2021/08/27 08:09:17;;;;;;;;;;;;;;;31.77;59.44;99254.16;5031654;28;822;-62
2021/08/27 08:11:43;;;;;;;;;;;;;;;31.54;62.02;99255.59;5031526;28;1948;-62
2021/08/27 08:14:10;;;;;;;;;;;;;;;31.53;63.58;99254.06;5031452;28;889;-62
2021/08/27 08:16:36;;;;;;;;;;;;;;;31.57;62.86;99252.94;5031423;28;1194;-62
2021/08/27 08:19:04;;;;;;;;;;;;;;;31.76;63.63;99258.38;5031540;28;838;-62
2021/08/27 08:21:30;;;;;;;;;;;;;;;31.71;61.66;99260.81;5031513;28;834;-62
2021/08/27 08:23:57;;;;;;;;;;;;;;;31.89;64.41;99258.22;5031412;28;874;-62
2021/08/27 08:26:24;;;;;;;;;;;;;;;32.02;64.69;99263.81;5031493;28;840;-62
2021/08/27 08:28:51;;;;;;;;;;;;;;;31.33;66.18;99266.28;5031575;28;803;-62
2021/08/27 08:31:20;;;;;;;;;;;;;;;30.07;66.03;99263.38;5031399;28;1967;-62
2021/08/27 08:33:48;;;;;;;;;;;;;;;30.46;65.87;99256.78;5030058;28;1168;-62
2021/08/27 08:36:15;;;;;;;;;;;;;;;30.75;63.58;99251.19;5031709;28;838;-62
2021/08/27 08:38:41;;;;;;;;;;;;;;;30.77;68.48;99245.69;5031280;28;862;-62
2021/08/27 08:41:08;;;;;;;;;;;;;;;31.01;63.18;99238.09;5031304;28;806;-62
2021/08/27 08:43:34;;;;;;;;;;;;;;;31.11;62.92;99239.88;5031202;28;795;-62
2021/08/27 08:46:01;;;;;;;;;;;;;;;31.23;63.38;99234.63;5031404;28;834;-62
2021/08/27 08:48:29;;;;;;;;;;;;;;;31.34;65.02;99234.34;5031288;28;814;-62
2021/08/27 08:50:57;;;;;;;;;;;;;;;31.01;66.97;99229.53;5031248;28;810;-62
2021/08/27 08:53:23;;;;;;;;;;;;;;;31.49;61.94;99227.19;5031265;28;826;-63
2021/08/27 08:55:51;;;;;;;;;;;;;;;31.75;65.45;99217.63;5031178;28;905;-62
2021/08/27 08:58:18;;;;;;;;;;;;;;;32.09;60.54;99205.16;5031167;28;889;-62
2021/08/27 09:00:45;;;;;;;;;;;;;;;32.01;66.18;99204.41;5031371;28;862;-62
2021/08/27 09:03:12;;;;;;;;;;;;;;;31.91;68.41;99201.28;5031233;28;849;-62
2021/08/27 09:05:40;;;;;;;;;;;;;;;31.82;63.62;99193.25;5031094;28;806;-62
2021/08/27 09:08:07;;;;;;;;;;;;;;;31.63;63.97;99185.00;5031161;28;815;-62
2021/08/27 09:10:39;;;;;;;;;;;;;;;31.54;64.43;99187.06;5031078;28;849;-62
2021/08/27 09:13:09;;;;;;;;;;;;;;;31.28;63.21;99192.97;5029623;28;1909;-62
2021/08/27 09:15:36;;;;;;;;;;;;;;;30.85;63.99;99183.72;5033023;28;1283;-62
2021/08/27 09:18:08;;;;;;;;;;;;;;;30.80;66.93;99176.09;5034708;28;959;-62
2021/08/27 09:20:35;;;;;;;;;;;;;;;30.80;69.12;99175.34;5034688;28;921;-62
2021/08/27 09:23:04;;;;;;;;;;;;;;;31.07;69.40;99176.69;5034583;28;885;-62
2021/08/27 09:25:32;;;;;;;;;;;;;;;30.96;70.15;99174.16;5034553;28;830;-62
2021/08/27 09:28:06;;;;;;;;;;;;;;;30.94;67.11;99171.09;5034451;28;841;-62
2021/08/27 09:30:34;;;;;;;;;;;;;;;30.57;63.40;99172.31;5035267;28;815;-62
2021/08/27 09:33:09;;;;;;;;;;;;;;;30.35;66.76;99165.09;5034589;28;1985;-62
2021/08/27 09:35:36;;;;;;;;;;;;;;;30.35;68.01;99162.25;5034369;28;925;-62
2021/08/27 09:38:11;;;;;;;;;;;;;;;30.73;64.64;99166.16;5034469;28;841;-62
2021/08/27 09:40:38;;;;;;;;;;;;;;;30.79;61.44;99159.53;5034196;28;823;-62
2021/08/27 09:43:06;;;;;;;;;;;;;;;30.55;65.20;99152.91;5034214;28;869;-63
2021/08/27 09:45:36;;;;;;;;;;;;;;;30.61;61.61;99150.66;5034480;28;799;-63
2021/08/27 09:48:09;;;;;;;;;;;;;;;30.45;59.08;99149.78;5034885;28;755;-62
2021/08/27 09:50:37;;;;;;;;;;;;;;;30.43;62.16;99145.97;5034065;28;806;-63
2021/08/27 09:53:05;;;;;;;;;;;;;;;30.55;65.88;99140.75;5034051;28;2245;-62
2021/08/27 09:55:32;;;;;;;;;;;;;;;30.72;60.46;99149.59;5033952;28;790;-62
2021/08/27 09:58:03;;;;;;;;;;;;;;;30.82;64.80;99141.31;5034016;28;818;-62
2021/08/27 10:00:32;;;;;;;;;;;;;;;30.93;60.20;99136.09;5033948;28;850;-62
2021/08/27 10:03:02;;;;;;;;;;;;;;;31.06;59.29;99143.00;5032502;28;1237;-62
2021/08/27 10:05:37;;;;;;;;;;;;;;;31.01;65.04;99127.59;5032564;28;1295;-62
2021/08/27 10:08:13;;;;;;;;;;;;;;;30.92;65.86;99131.72;5033933;28;831;-62
2021/08/27 10:10:40;;;;;;;;;;;;;;;31.03;60.05;99124.94;5033817;28;815;-61
2021/08/27 10:13:07;;;;;;;;;;;;;;;31.23;61.57;99125.41;5033791;28;1890;-62
2021/08/27 10:15:34;;;;;;;;;;;;;;;31.60;60.12;99126.16;5033547;28;1277;-62
2021/08/27 10:18:03;;;;;;;;;;;;;;;31.76;62.04;99129.81;5033570;28;870;-62
2021/08/27 10:20:30;;;;;;;;;;;;;;;31.84;63.92;99113.47;5033391;28;898;-62
2021/08/27 10:22:55;;;;;;;;;;;;;;;31.58;63.44;99105.97;5033605;28;870;-62
2021/08/27 10:25:26;;;;;;;;;;;;;;;31.58;62.76;99114.53;5033513;28;890;-62
2021/08/27 10:27:54;;;;;;;;;;;;;;;31.93;62.81;99110.06;5033423;28;830;-62
2021/08/27 10:30:41;;;;;;;;;;;;;;;32.53;61.50;99111.44;5033254;28;922;-63
2021/08/27 10:33:08;;;;;;;;;;;;;;;32.79;52.60;99115.22;5033159;28;1969;-65
2021/08/27 10:35:41;;;;;;;;;;;;;;;32.04;58.93;99114.66;5033158;28;886;-63
2021/08/27 10:38:28;;;;;;;;;;;;;;;31.94;55.55;99118.06;5033395;28;807;-62
2021/08/27 10:41:15;;;;;;;;;;;;;;;32.21;49.87;99112.00;5033161;28;1061;-64
2021/08/27 10:43:52;;;;;;;;;;;;;;;32.54;46.66;99109.38;5033008;28;1060;-63
2021/08/27 10:46:19;;;;;;;;;;;;;;;32.31;48.12;99117.94;5032998;28;819;-63
2021/08/27 10:48:50;;;;;;;;;;;;;;;31.66;58.16;99116.06;5033043;28;791;-63
2021/08/27 10:51:35;;;;;;;;;;;;;;;31.83;52.18;99109.06;5033015;28;1890;-63
2021/08/27 10:54:02;;;;;;;;;;;;;;;31.79;48.87;99105.81;5032907;28;841;-63
2021/08/27 10:56:41;;;;;;;;;;;;;;;32.24;54.56;99110.09;5032892;28;885;-63
2021/08/27 10:59:09;;;;;;;;;;;;;;;32.89;49.37;99103.97;5032933;28;830;-64
2021/08/27 11:01:36;;;;;;;;;;;;;;;32.77;51.04;99099.97;5032767;28;790;-64
2021/08/27 11:04:18;;;;;;;;;;;;;;;32.91;54.72;99104.91;5032746;28;841;-63
2021/08/27 11:06:51;;;;;;;;;;;;;;;33.80;58.22;99101.31;5032657;28;810;-63
2021/08/27 11:09:25;;;;;;;;;;;;;;;34.14;52.70;99097.84;5032545;28;799;-64
2021/08/27 11:12:04;;;;;;;;;;;;;;;33.92;48.93;99088.81;5032449;28;1889;-64
2021/08/27 11:14:31;;;;;;;;;;;;;;;33.70;44.96;99095.47;5032808;28;1081;-63
2021/08/27 11:16:58;;;;;;;;;;;;;;;33.32;49.40;99102.13;5032588;28;1255;-63
2021/08/27 11:19:31;;;;;;;;;;;;;;;32.96;49.84;99108.91;5032751;28;877;-63
2021/08/27 11:22:13;;;;;;;;;;;;;;;32.93;50.41;99090.78;5032456;28;874;-63
2021/08/27 11:24:41;;;;;;;;;;;;;;;32.38;57.21;99097.13;5032553;28;845;-63
2021/08/27 11:27:14;;;;;;;;;;;;;;;32.43;52.48;99083.97;5032191;28;1072;-63
2021/08/27 11:29:42;;;;;;;;;;;;;;;32.48;48.76;99078.06;5032351;28;921;-64
2021/08/27 11:32:17;;;;;;;;;;;;;;;32.14;53.19;99082.09;5032080;28;1909;-63
2021/08/27 11:34:50;;;;;;;;;;;;;;;31.91;52.15;99078.44;5032153;28;863;-63
2021/08/27 11:37:16;;;;;;;;;;;;;;;32.28;52.04;99073.31;5031835;28;874;-63
2021/08/27 11:39:43;;;;;;;;;;;;;;;32.83;45.67;99074.78;5032210;28;838;-64
2021/08/27 11:42:11;;;;;;;;;;;;;;;33.31;50.45;99074.84;5032451;28;826;-63
2021/08/27 11:44:43;;;;;;;;;;;;;;;33.78;47.03;99067.53;5032128;28;858;-63
2021/08/27 11:47:13;;;;;;;;;;;;;;;33.94;40.25;99076.78;5030604;28;791;-64
2021/08/27 11:49:45;;;;;;;;;;;;;;;33.73;40.59;99069.25;5031847;28;865;-63
2021/08/27 11:52:14;;;;;;;;;;;;;;;33.69;41.98;99062.41;5031782;28;1890;-63
2021/08/27 11:54:41;;;;;;;;;;;;;;;34.25;45.35;99057.25;5031760;28;953;-63
2021/08/27 11:57:15;;;;;;;;;;;;;;;34.76;44.71;99058.69;5031717;28;873;-64
2021/08/27 11:59:42;;;;;;;;;;;;;;;34.16;42.78;99055.81;5031783;28;830;-64
2021/08/27 12:02:17;;;;;;;;;;;;;;;33.51;50.50;99056.59;5031788;28;862;-63
2021/08/27 12:04:43;;;;;;;;;;;;;;;33.91;49.93;99047.19;5031673;28;799;-63
2021/08/27 12:07:11;;;;;;;;;;;;;;;34.72;45.23;99046.13;5030377;28;1348;-64
2021/08/27 12:09:39;;;;;;;;;;;;;;;35.18;43.61;99048.44;5031819;28;886;-64
2021/08/27 12:12:06;;;;;;;;;;;;;;;34.53;43.72;99041.69;5031595;28;1991;-64
2021/08/27 12:14:49;;;;;;;;;;;;;;;33.19;49.29;99045.13;5030202;28;2340;-64
2021/08/27 12:17:20;;;;;;;;;;;;;;;32.48;46.76;99052.34;5031306;28;1224;-64
2021/08/27 12:19:47;;;;;;;;;;;;;;;32.51;51.46;99045.47;5031739;28;862;-63
2021/08/27 12:22:17;;;;;;;;;;;;;;;32.60;50.70;99051.97;5031490;28;814;-63
2021/08/27 12:24:45;;;;;;;;;;;;;;;33.80;52.15;99050.53;5030151;28;872;-63
2021/08/27 12:27:12;;;;;;;;;;;;;;;33.99;51.42;99047.09;5031473;28;798;-63
2021/08/27 12:29:39;;;;;;;;;;;;;;;33.39;43.54;99044.03;5031471;28;818;-64
2021/08/27 12:32:06;;;;;;;;;;;;;;;32.63;46.88;99045.84;5031296;28;1910;-63
2021/08/27 12:34:33;;;;;;;;;;;;;;;33.15;45.73;99042.66;5031470;28;830;-63
2021/08/27 12:37:00;;;;;;;;;;;;;;;33.74;45.83;99050.00;5031423;28;842;-63
2021/08/27 12:39:26;;;;;;;;;;;;;;;33.40;49.16;99041.97;5031193;28;869;-63
2021/08/27 12:41:53;;;;;;;;;;;;;;;33.09;52.74;99039.25;5031382;28;854;-63
2021/08/27 12:44:19;;;;;;;;;;;;;;;32.88;54.05;99036.63;5031298;28;846;-63
2021/08/27 12:46:47;;;;;;;;;;;;;;;32.81;53.72;99031.69;5031377;28;833;-63
2021/08/27 12:49:15;;;;;;;;;;;;;;;33.63;50.54;99036.88;5031582;28;794;-63
2021/08/27 12:51:44;;;;;;;;;;;;;;;33.68;50.81;99041.63;5035071;28;1910;-63
2021/08/27 12:54:11;;;;;;;;;;;;;;;34.80;47.27;99043.16;5035149;28;1055;-63
2021/08/27 12:56:38;;;;;;;;;;;;;;;34.83;40.37;99039.88;5033800;28;1268;-64
2021/08/27 12:59:15;;;;;;;;;;;;;;;33.93;43.51;99030.16;5035158;28;846;-63
2021/08/27 13:01:42;;;;;;;;;;;;;;;34.44;42.04;99028.03;5035059;28;937;-63
2021/08/27 13:04:09;;;;;;;;;;;;;;;34.60;40.09;99045.06;5035029;28;850;-63
2021/08/27 13:06:47;;;;;;;;;;;;;;;35.12;43.34;99042.97;5034911;28;806;-63
2021/08/27 13:09:18;;;;;;;;;;;;;;;35.64;37.69;99033.50;5034790;28;866;-63
2021/08/27 13:11:57;;;;;;;;;;;;;;;35.85;34.76;99032.19;5035065;28;1978;-63
2021/08/27 13:14:34;;;;;;;;;;;;;;;35.38;32.35;99035.00;5034656;28;1149;-65
2021/08/27 13:17:06;;;;;;;;;;;;;;;35.06;34.03;99038.81;5034722;28;1409;-63
2021/08/27 13:19:51;;;;;;;;;;;;;;;34.73;34.52;99044.75;5016909;28;1275;-63